Time;durP1;ratioP1;P1;durP2;ratioP2;P2;SDS_P1;SDS_P2;PMS_P1;PMS_P2;Temp;Humidity;BMP_temperature;BMP_pressure;BME280_temperature;BME280_humidity;BME280_pressure;Samples;Min_cycle;Max_cycle;Signal;HPM_P1;HPM_P2
2022/03/23 00:02:38;;;;;;;22.87;11.00;;;;;;;6.63;37.33;101405.94;4481642;32;34187;-71
2022/03/23 00:05:25;;;;;;;19.90;9.65;;;;;;;6.54;37.18;101410.09;4474474;32;34712;-71
2022/03/23 00:08:12;;;;;;;18.27;10.15;;;;;;;6.56;37.26;101401.69;4481266;32;34918;-71
2022/03/23 00:10:58;;;;;;;18.30;9.60;;;;;;;6.87;36.53;101393.06;4480497;32;34513;-71
2022/03/23 00:13:45;;;;;;;17.48;9.15;;;;;;;7.12;35.75;101394.59;4481076;32;35101;-71
2022/03/23 00:16:35;;;;;;;18.08;8.75;;;;;;;6.93;36.45;101389.34;4480637;32;34355;-71
2022/03/23 00:19:21;;;;;;;16.90;9.65;;;;;;;7.14;35.77;101393.28;4465183;32;35712;-71
2022/03/23 00:22:08;;;;;;;22.23;10.35;;;;;;;7.26;35.80;101395.09;4480743;32;34938;-71
2022/03/23 00:24:56;;;;;;;16.35;9.55;;;;;;;7.27;35.61;101383.97;4480442;32;35112;-70
2022/03/23 00:27:42;;;;;;;19.90;9.45;;;;;;;7.12;36.16;101394.59;4464742;32;35963;-71
2022/03/23 00:30:28;;;;;;;17.00;9.18;;;;;;;6.62;36.95;101389.81;4475505;32;34556;-71
2022/03/23 00:33:36;;;;;;;19.12;9.00;;;;;;;6.75;36.58;101379.47;4481027;32;35612;-71
2022/03/23 00:36:23;;;;;;;17.00;8.93;;;;;;;6.05;38.57;101371.47;4470067;32;34125;-71
2022/03/23 00:39:10;;;;;;;15.85;8.90;;;;;;;6.73;37.19;101373.44;4461560;32;34675;-71
2022/03/23 00:41:56;;;;;;;19.42;9.95;;;;;;;6.73;37.53;101376.16;4471474;32;34898;-71
2022/03/23 00:44:47;;;;;;;18.90;8.90;;;;;;;6.59;37.84;101380.25;4472820;32;35507;-71
2022/03/23 00:47:35;;;;;;;17.10;9.82;;;;;;;6.18;39.13;101373.97;4481430;32;34227;-71
2022/03/23 00:50:21;;;;;;;18.55;9.57;;;;;;;6.19;39.08;101372.87;4480826;32;34587;-71
2022/03/23 00:53:07;;;;;;;17.27;9.35;;;;;;;5.81;40.17;101373.38;4464070;32;35513;-71
2022/03/23 00:55:54;;;;;;;18.45;9.68;;;;;;;5.96;39.63;101370.19;4472881;32;34705;-71
2022/03/23 00:58:41;;;;;;;21.83;10.18;;;;;;;6.15;38.91;101371.72;4480813;32;35093;-71
2022/03/23 01:01:29;;;;;;;17.55;9.38;;;;;;;6.09;39.83;101367.25;4480917;32;34716;-71
2022/03/23 01:04:15;;;;;;;17.87;10.05;;;;;;;5.93;39.94;101370.66;4480791;32;35051;-71
2022/03/23 01:07:03;;;;;;;18.27;10.23;;;;;;;5.89;40.16;101369.44;4480476;32;34841;-71
2022/03/23 01:09:49;;;;;;;17.20;8.77;;;;;;;5.78;40.51;101363.78;4481096;32;34346;-71
2022/03/23 01:12:35;;;;;;;16.12;8.93;;;;;;;5.47;41.49;101366.84;4480298;32;34573;-71
2022/03/23 01:15:22;;;;;;;18.30;9.73;;;;;;;5.66;40.87;101364.84;4470438;32;34999;-71
2022/03/23 01:18:09;;;;;;;15.82;9.43;;;;;;;4.42;44.05;101370.88;4481170;32;34622;-71
2022/03/23 01:20:57;;;;;;;18.45;9.80;;;;;;;4.86;43.09;101369.66;4475078;32;33226;-71
2022/03/23 01:23:45;;;;;;;17.80;8.98;;;;;;;5.52;41.57;101369.69;4475272;32;34650;-71
2022/03/23 01:26:31;;;;;;;17.40;8.90;;;;;;;5.35;41.85;101364.94;4471683;32;34917;-71
2022/03/23 01:29:19;;;;;;;19.42;9.98;;;;;;;5.27;41.65;101370.72;4480904;32;34647;-71
2022/03/23 01:32:07;;;;;;;17.05;8.90;;;;;;;4.76;43.34;101371.28;4481285;32;35172;-71
2022/03/23 01:34:54;;;;;;;16.67;9.18;;;;;;;4.88;43.09;101353.94;4481094;32;33491;-71
2022/03/23 01:37:41;;;;;;;18.52;9.25;;;;;;;5.05;42.55;101345.16;4480837;32;34534;-71
2022/03/23 01:40:28;;;;;;;18.73;9.82;;;;;;;4.31;45.00;101350.75;4471255;32;35180;-71
2022/03/23 01:43:14;;;;;;;17.23;9.10;;;;;;;4.00;45.28;101351.72;4480729;32;34134;-71
2022/03/23 01:46:01;;;;;;;16.65;7.95;;;;;;;4.21;45.36;101354.00;4477218;32;34539;-71
2022/03/23 01:48:47;;;;;;;19.30;8.73;;;;;;;4.35;44.94;101349.22;4475128;32;34756;-71
2022/03/23 01:51:34;;;;;;;19.92;9.02;;;;;;;4.05;45.37;101350.00;4481037;32;33526;-70
2022/03/23 01:54:20;;;;;;;18.98;8.60;;;;;;;4.06;45.62;101351.66;4480183;32;34128;-71
2022/03/23 01:57:08;;;;;;;20.83;8.90;;;;;;;4.24;45.15;101347.28;4480263;32;34696;-70
2022/03/23 01:59:54;;;;;;;16.73;9.27;;;;;;;4.03;45.52;101345.84;4480276;32;37704;-70
2022/03/23 02:02:40;;;;;;;16.15;8.77;;;;;;;4.06;44.70;101351.66;4480437;32;34799;-70
2022/03/23 02:05:28;;;;;;;18.20;8.60;;;;;;;3.04;47.68;101343.00;4474098;32;34320;-71
2022/03/23 02:08:15;;;;;;;20.00;9.55;;;;;;;3.74;46.20;101352.84;4480199;32;35592;-71
2022/03/23 02:11:02;;;;;;;21.00;9.70;;;;;;;3.77;46.27;101353.22;4481123;32;35023;-71
2022/03/23 02:13:48;;;;;;;18.90;8.95;;;;;;;4.24;44.75;101344.56;4480481;32;35179;-71
2022/03/23 02:16:53;;;;;;;22.13;9.60;;;;;;;3.72;45.79;101344.09;4480902;32;34791;-70
2022/03/23 02:19:40;;;;;;;16.73;8.60;;;;;;;3.78;45.36;101348.63;4480107;32;34514;-71
2022/03/23 02:22:27;;;;;;;23.02;9.93;;;;;;;3.93;45.34;101351.81;4471875;32;34804;-70
2022/03/23 02:25:23;;;;;;;19.90;9.45;;;;;;;4.39;43.40;101350.44;4480320;32;34611;-70
2022/03/23 02:28:10;;;;;;;17.20;9.23;;;;;;;3.11;46.56;101338.37;4480739;32;33126;-70
2022/03/23 02:30:56;;;;;;;17.83;8.65;;;;;;;3.23;47.04;101348.50;4471833;32;34666;-70
2022/03/23 02:33:43;;;;;;;15.93;8.38;;;;;;;3.74;45.67;101347.44;4472627;32;34863;-70
2022/03/23 02:36:30;;;;;;;18.05;8.35;;;;;;;3.23;47.36;101351.22;4480220;32;34617;-71
2022/03/23 02:39:17;;;;;;;17.80;8.60;;;;;;;3.70;45.52;101347.06;4470925;32;34209;-70
2022/03/23 02:42:03;;;;;;;17.70;7.95;;;;;;;3.62;45.71;101347.34;4479106;32;35229;-71
2022/03/23 02:44:50;;;;;;;17.33;7.40;;;;;;;3.67;45.46;101352.06;4472134;32;36029;-72
2022/03/23 02:47:36;;;;;;;17.73;8.00;;;;;;;4.20;43.23;101352.34;4472352;32;35405;-70
2022/03/23 02:50:22;;;;;;;21.90;7.85;;;;;;;3.81;44.80;101348.16;4469962;32;34260;-71
2022/03/23 03:02:35;;;;;;;15.27;7.03;;;;;;;4.20;43.41;101346.09;4473411;32;33042;-70
2022/03/23 03:05:22;;;;;;;16.95;7.30;;;;;;;3.39;45.75;101342.53;4479319;32;34611;-71
2022/03/23 03:11:16;;;;;;;12.88;7.12;;;;;;;4.52;42.99;101344.00;4480290;32;34427;-70
2022/03/23 03:14:02;;;;;;;15.52;7.68;;;;;;;3.77;45.11;101352.41;4470938;32;34784;-70
2022/03/23 03:16:49;;;;;;;17.80;7.90;;;;;;;4.29;44.11;101345.53;4480421;32;35536;-71
2022/03/23 03:19:36;;;;;;;17.65;7.10;;;;;;;4.43;43.09;101345.37;4470815;32;34902;-71
2022/03/23 03:22:25;;;;;;;17.10;8.05;;;;;;;4.41;43.61;101350.19;4478857;32;34657;-71
2022/03/23 03:25:15;;;;;;;15.35;7.35;;;;;;;3.88;45.05;101354.38;4473000;32;34199;-71
2022/03/23 03:28:01;;;;;;;15.70;7.70;;;;;;;3.93;45.15;101351.00;4471951;32;35582;-70
2022/03/23 03:30:47;;;;;;;15.93;7.47;;;;;;;3.18;46.74;101349.16;4479455;31;35380;-70
2022/03/23 03:33:34;;;;;;;16.58;7.70;;;;;;;4.08;44.41;101350.62;4479671;32;36566;-70
2022/03/23 03:36:20;;;;;;;14.55;7.45;;;;;;;3.23;46.69;101351.22;4470444;32;33738;-70
2022/03/23 03:39:07;;;;;;;15.00;7.93;;;;;;;3.70;46.18;101347.06;4477660;32;34531;-70
2022/03/23 03:41:54;;;;;;;14.20;6.43;;;;;;;3.88;44.87;101338.09;4471175;32;34945;-70
2022/03/23 03:44:40;;;;;;;14.35;7.40;;;;;;;4.22;44.25;101339.38;4473706;32;34550;-70
2022/03/23 03:47:27;;;;;;;13.82;7.00;;;;;;;4.08;44.00;101339.78;4474973;32;34195;-71
2022/03/23 03:50:13;;;;;;;14.80;7.07;;;;;;;3.99;44.60;101340.06;4470565;32;34705;-71
2022/03/23 03:52:59;;;;;;;17.65;7.40;;;;;;;4.37;43.31;101332.72;4481227;32;36037;-70
2022/03/23 03:55:46;;;;;;;18.40;8.38;;;;;;;4.13;43.60;101329.91;4480602;32;34881;-70
2022/03/23 03:58:32;;;;;;;14.87;7.82;;;;;;;4.58;42.34;101334.13;4472076;32;35234;-70
2022/03/23 04:01:18;;;;;;;18.52;8.52;;;;;;;4.42;42.96;101339.13;4474987;32;35263;-70
2022/03/23 04:04:05;;;;;;;15.88;7.70;;;;;;;4.43;43.32;101346.19;4481051;32;35021;-71
2022/03/23 04:06:52;;;;;;;16.25;7.22;;;;;;;3.87;45.10;101341.87;4481217;32;35224;-70
2022/03/23 04:09:39;;;;;;;15.88;8.00;;;;;;;3.08;47.86;101341.53;4480027;32;33742;-70
2022/03/23 04:12:25;;;;;;;16.55;7.03;;;;;;;3.81;45.63;101348.16;4475715;32;34625;-71
2022/03/23 04:15:11;;;;;;;16.23;7.75;;;;;;;2.77;48.99;101342.37;4480446;32;36611;-70
2022/03/23 04:17:57;;;;;;;15.07;7.40;;;;;;;3.56;47.03;101342.81;4474750;32;35403;-70
2022/03/23 04:20:43;;;;;;;16.87;7.97;;;;;;;3.44;46.31;101337.25;4480480;32;33827;-70
2022/03/23 04:23:30;;;;;;;14.70;6.80;;;;;;;3.99;43.67;101342.78;4480644;32;34340;-71
2022/03/23 04:26:16;;;;;;;15.57;7.75;;;;;;;4.53;41.89;101339.44;4481496;32;35955;-70
2022/03/23 04:29:02;;;;;;;19.33;8.23;;;;;;;4.96;40.02;101333.78;4476184;32;35300;-70
2022/03/23 04:31:49;;;;;;;16.87;7.55;;;;;;;5.43;38.94;101328.41;4474743;32;35068;-71
2022/03/23 04:34:36;;;;;;;17.80;7.93;;;;;;;5.90;37.32;101324.87;4475878;32;35578;-70
2022/03/23 04:37:22;;;;;;;16.40;6.37;;;;;;;6.37;36.29;101327.50;4480753;32;33669;-71
2022/03/23 04:40:10;;;;;;;21.02;8.52;;;;;;;6.64;35.93;101330.50;4479981;32;35147;-71
2022/03/23 04:42:57;;;;;;;14.85;6.80;;;;;;;7.02;35.05;101321.66;4473096;32;34127;-70
2022/03/23 04:45:43;;;;;;;17.10;7.37;;;;;;;7.22;34.79;101324.72;4480549;32;34527;-71
2022/03/23 04:48:29;;;;;;;15.25;7.22;;;;;;;7.37;34.01;101331.47;4481735;32;35900;-71
2022/03/23 04:51:16;;;;;;;14.57;7.65;;;;;;;7.57;33.53;101330.97;4480868;32;34805;-71
2022/03/23 04:54:02;;;;;;;17.50;7.45;;;;;;;7.85;33.20;101332.75;4473529;32;35232;-71
2022/03/23 04:56:48;;;;;;;15.45;7.57;;;;;;;7.64;33.58;101332.47;4481322;32;34639;-71
2022/03/23 04:59:35;;;;;;;17.48;7.78;;;;;;;7.49;35.29;101345.87;4480676;32;35861;-71
2022/03/23 05:02:21;;;;;;;16.20;7.55;;;;;;;6.69;36.95;101341.50;4481209;32;34589;-71
2022/03/23 05:05:10;;;;;;;13.38;7.40;;;;;;;6.38;37.53;101343.62;4473475;32;34158;-71
2022/03/23 05:07:57;;;;;;;15.98;7.35;;;;;;;6.99;36.15;101344.75;4473531;32;34556;-71
2022/03/23 05:10:43;;;;;;;15.02;7.97;;;;;;;6.86;36.88;101344.25;4472695;32;34948;-71
2022/03/23 05:13:29;;;;;;;16.80;7.78;;;;;;;6.80;37.91;101350.66;4470024;32;34618;-71
2022/03/23 05:16:18;;;;;;;14.15;7.40;;;;;;;6.09;39.13;101359.06;4481313;32;34150;-71
2022/03/23 05:19:04;;;;;;;18.50;8.52;;;;;;;6.30;37.99;101361.16;4480613;32;34669;-71
2022/03/23 05:21:51;;;;;;;18.92;8.15;;;;;;;6.11;39.17;101366.97;4481214;32;36007;-74
2022/03/23 05:24:37;;;;;;;15.18;8.35;;;;;;;4.71;42.93;101369.25;4464881;32;35466;-74
2022/03/23 05:27:24;;;;;;;17.25;7.90;;;;;;;4.32;43.24;101370.56;4475645;32;35065;-74
2022/03/23 05:30:11;;;;;;;16.55;7.90;;;;;;;3.92;43.88;101376.44;4476213;32;35599;-73
2022/03/23 05:32:58;;;;;;;16.65;8.27;;;;;;;4.45;43.43;101375.84;4475844;32;35875;-73
2022/03/23 05:35:44;;;;;;;19.35;8.50;;;;;;;4.99;41.78;101370.53;4471645;32;35509;-73
2022/03/23 05:38:31;;;;;;;19.23;8.23;;;;;;;5.28;40.60;101369.66;4475605;32;33833;-74
2022/03/23 05:41:17;;;;;;;21.55;9.23;;;;;;;5.40;40.21;101365.06;4482911;32;35257;-73
2022/03/23 05:44:04;;;;;;;17.33;8.77;;;;;;;5.42;40.19;101362.13;4483271;32;33361;-74
2022/03/23 05:46:51;;;;;;;19.00;9.05;;;;;;;5.42;40.33;101364.84;4475002;32;34864;-73
2022/03/23 05:49:37;;;;;;;18.33;9.07;;;;;;;5.78;39.71;101362.97;4479473;32;34939;-73
2022/03/23 05:52:23;;;;;;;17.05;8.05;;;;;;;6.53;38.03;101359.44;4483863;32;34681;-74
2022/03/23 05:55:10;;;;;;;17.62;8.57;;;;;;;7.05;36.60;101353.03;4474825;32;33950;-74
2022/03/23 05:57:56;;;;;;;16.60;8.07;;;;;;;7.49;36.03;101362.25;4483911;32;34656;-74
2022/03/23 06:00:43;;;;;;;20.85;9.52;;;;;;;7.77;35.93;101364.06;4465979;32;34141;-76
2022/03/23 06:03:30;;;;;;;19.95;9.27;;;;;;;8.21;34.63;101363.28;4471850;32;34547;-75
2022/03/23 06:06:17;;;;;;;15.57;7.85;;;;;;;8.59;33.73;101370.59;4468742;32;34949;-76
2022/03/23 06:09:03;;;;;;;19.00;8.57;;;;;;;8.91;33.14;101373.44;4470256;32;34627;-76
2022/03/23 06:11:49;;;;;;;20.73;9.63;;;;;;;9.35;33.16;101369.75;4475956;32;34273;-76
2022/03/23 06:14:36;;;;;;;22.15;8.77;;;;;;;9.59;31.86;101356.50;4477468;32;34592;-77
2022/03/23 06:17:22;;;;;;;13.90;8.18;;;;;;;9.84;31.38;101356.69;4474014;32;34916;-78
2022/03/23 06:20:09;;;;;;;19.42;9.30;;;;;;;10.12;31.40;101354.66;4474171;32;35537;-81
2022/03/23 06:22:55;;;;;;;19.27;8.38;;;;;;;10.54;30.48;101351.87;4476719;32;34120;-83
2022/03/23 06:25:41;;;;;;;16.95;8.80;;;;;;;10.35;30.90;101365.22;4474283;32;34714;-78
2022/03/23 06:28:28;;;;;;;20.17;9.10;;;;;;;10.78;30.36;101360.44;4473863;32;36206;-78
2022/03/23 06:31:14;;;;;;;18.75;8.77;;;;;;;10.64;30.94;101359.28;4484634;32;34679;-78
2022/03/23 06:34:04;;;;;;;21.52;10.48;;;;;;;10.68;30.67;101357.69;4485612;32;34171;-76
2022/03/23 06:36:50;;;;;;;17.17;9.32;;;;;;;10.98;29.50;101356.09;4485511;32;34639;-77
2022/03/23 06:39:37;;;;;;;18.20;9.95;;;;;;;11.01;29.80;101355.53;4485449;32;35067;-77
2022/03/23 06:42:23;;;;;;;18.83;9.65;;;;;;;11.38;29.01;101363.53;4473577;32;35624;-79
2022/03/23 06:45:10;;;;;;;17.87;9.95;;;;;;;11.29;29.17;101361.63;4485489;32;34458;-79
2022/03/23 06:47:57;;;;;;;18.40;9.27;;;;;;;11.34;28.77;101365.19;4485395;32;35592;-78
2022/03/23 06:50:43;;;;;;;16.98;9.18;;;;;;;11.87;28.72;101364.91;4484474;32;34936;-78
2022/03/23 06:53:30;;;;;;;19.02;8.60;;;;;;;11.53;28.24;101359.97;4485333;32;34739;-78
2022/03/23 06:56:16;;;;;;;18.92;9.32;;;;;;;11.77;28.28;101362.97;4485359;32;34248;-80
2022/03/23 06:59:04;;;;;;;17.27;8.63;;;;;;;12.09;27.81;101362.66;4483929;32;34611;-77
2022/03/23 07:01:50;;;;;;;19.23;9.05;;;;;;;12.32;27.86;101368.63;4473219;32;34979;-78
2022/03/23 07:04:37;;;;;;;17.42;9.40;;;;;;;12.43;27.21;101361.16;4484128;32;34622;-78
2022/03/23 07:07:23;;;;;;;17.05;9.93;;;;;;;12.75;27.37;101367.06;4473514;32;34117;-79
2022/03/23 07:10:09;;;;;;;18.55;10.07;;;;;;;12.66;27.46;101371.50;4484783;32;35550;-83
2022/03/23 07:12:57;;;;;;;16.12;9.23;;;;;;;12.66;27.03;101363.25;4483827;32;35927;-83
2022/03/23 07:15:44;;;;;;;18.60;10.05;;;;;;;12.81;27.54;101371.44;4473257;32;34649;-83
2022/03/23 07:18:30;;;;;;;17.48;9.90;;;;;;;12.57;27.61;101368.50;4491768;32;34187;-80
2022/03/23 07:21:18;;;;;;;18.83;9.40;;;;;;;12.90;27.77;101373.59;4470800;32;34853;-75
2022/03/23 07:24:05;;;;;;;26.95;10.60;;;;;;;12.95;27.00;101374.38;4466039;32;35914;-81
2022/03/23 07:26:51;;;;;;;20.25;9.18;;;;;;;12.93;26.97;101373.84;4486675;32;34733;-81
2022/03/23 07:29:58;;;;;;;17.33;9.85;;;;;;;13.04;27.50;101364.41;4491750;32;34246;-81
2022/03/23 07:32:45;;;;;;;19.25;9.98;;;;;;;13.48;26.96;101369.06;4486010;32;34698;-78
2022/03/23 07:35:32;;;;;;;18.75;9.52;;;;;;;13.45;26.50;101363.31;4482122;32;34955;-80
2022/03/23 07:38:19;;;;;;;19.62;9.93;;;;;;;12.83;27.25;101371.97;4471202;32;34938;-79
2022/03/23 07:41:06;;;;;;;21.08;9.68;;;;;;;13.34;26.49;101368.06;4474598;32;34298;-78
2022/03/23 07:43:53;;;;;;;20.35;10.18;;;;;;;13.34;26.13;101367.25;4486123;32;34738;-82
2022/03/23 07:46:39;;;;;;;21.83;10.95;;;;;;;13.39;25.93;101368.03;4464635;32;34918;-81
2022/03/23 07:49:25;;;;;;;19.40;10.30;;;;;;;13.90;26.16;101367.56;4485921;32;35578;-81
2022/03/23 07:52:12;;;;;;;17.87;10.20;;;;;;;14.05;26.24;101361.06;4475273;32;35147;-78
2022/03/23 07:55:00;;;;;;;20.25;10.60;;;;;;;14.11;24.90;101359.09;4474357;32;34136;-78
2022/03/23 07:57:46;;;;;;;17.12;9.63;;;;;;;14.08;25.26;101365.19;4484341;32;35885;-78
2022/03/23 08:00:34;;;;;;;20.90;10.93;;;;;;;14.08;25.54;101365.19;4477567;32;34699;-78
2022/03/23 08:03:20;;;;;;;17.83;10.48;;;;;;;14.12;25.34;101361.56;4473274;32;34247;-77
2022/03/23 08:06:07;;;;;;;22.52;11.20;;;;;;;14.33;25.47;101358.56;4480189;32;34564;-80
2022/03/23 08:08:54;;;;;;;21.92;10.48;;;;;;;14.74;24.76;101361.66;4476632;32;34919;-80
2022/03/23 08:11:40;;;;;;;22.77;10.88;;;;;;;14.69;25.03;101358.97;4464538;32;34561;-81
2022/03/23 08:14:27;;;;;;;17.35;10.15;;;;;;;15.13;24.70;101357.75;4473102;32;35231;-80
2022/03/23 08:17:13;;;;;;;19.90;10.93;;;;;;;15.23;24.45;101352.09;4472799;32;34592;-79
2022/03/23 08:23:12;;;;;;;22.67;11.12;;;;;;;15.34;24.51;101346.38;4465130;32;35551;-79
2022/03/23 08:25:58;;;;;;;25.20;10.77;;;;;;;15.28;24.10;101360.28;4466504;32;33833;-79
2022/03/23 08:28:46;;;;;;;21.37;11.07;;;;;;;15.66;23.78;101351.09;4463268;32;35591;-77
2022/03/23 08:31:32;;;;;;;21.90;10.50;;;;;;;15.29;23.95;101356.41;4467837;32;36012;-78
2022/03/23 08:34:19;;;;;;;17.17;10.35;;;;;;;15.59;23.80;101353.41;4470273;32;34772;-76
2022/03/23 08:37:06;;;;;;;18.48;10.15;;;;;;;15.82;23.49;101351.66;4463598;32;35312;-77
2022/03/23 08:39:52;;;;;;;22.08;10.85;;;;;;;16.15;24.20;101356.00;4486562;32;35556;-77
2022/03/23 08:42:39;;;;;;;17.05;9.57;;;;;;;15.96;23.04;101352.50;4470316;32;35039;-79
2022/03/23 08:45:26;;;;;;;15.73;10.00;;;;;;;16.27;24.77;101354.66;4473832;32;35524;-79
2022/03/23 08:48:12;;;;;;;18.60;10.68;;;;;;;16.62;23.32;101351.16;4470282;32;34240;-77
2022/03/23 08:50:58;;;;;;;16.87;9.30;;;;;;;16.91;22.23;101360.25;4471001;32;34451;-77
2022/03/23 08:53:45;;;;;;;19.92;9.65;;;;;;;17.00;22.49;101353.66;4485316;32;34966;-77
2022/03/23 08:56:31;;;;;;;14.95;8.40;;;;;;;17.01;22.11;101358.06;4463448;32;34993;-77
2022/03/23 08:59:18;;;;;;;18.95;10.05;;;;;;;17.50;22.36;101342.47;4477651;32;34372;-80
2022/03/23 09:02:04;;;;;;;19.58;10.73;;;;;;;17.61;21.38;101358.81;4486395;32;35414;-80
2022/03/23 09:04:51;;;;;;;21.00;10.65;;;;;;;17.83;21.52;101349.69;4474367;32;36011;-81
2022/03/23 09:07:38;;;;;;;22.30;10.55;;;;;;;17.49;21.54;101343.59;4464345;32;34576;-79
2022/03/23 09:10:27;;;;;;;19.20;10.65;;;;;;;18.14;21.74;101338.59;4477619;32;34281;-80
2022/03/23 09:13:13;;;;;;;16.23;9.25;;;;;;;18.48;20.76;101331.50;4463456;32;34761;-81
2022/03/23 09:16:00;;;;;;;20.75;9.57;;;;;;;18.66;20.36;101328.41;4485286;32;35915;-80
2022/03/23 09:18:46;;;;;;;16.67;9.35;;;;;;;18.85;20.09;101330.91;4463732;32;34565;-80
2022/03/23 09:21:33;;;;;;;15.98;9.32;;;;;;;18.31;19.70;101335.03;4486154;32;34177;-78
2022/03/23 09:24:19;;;;;;;21.12;9.82;;;;;;;17.44;20.85;101331.81;4474721;32;34659;-78
2022/03/23 09:27:06;;;;;;;17.80;9.57;;;;;;;16.47;22.16;101323.81;4485367;32;35967;-78
2022/03/23 09:29:52;;;;;;;16.92;8.30;;;;;;;18.19;21.17;101322.59;4459769;32;34987;-81
2022/03/23 09:32:40;;;;;;;14.52;8.77;;;;;;;18.32;21.48;101329.16;4484710;32;34332;-79
2022/03/23 09:35:26;;;;;;;21.20;9.98;;;;;;;19.02;19.46;101321.78;4481529;32;35509;-82
2022/03/23 09:38:13;;;;;;;17.83;9.48;;;;;;;19.80;18.96;101314.47;4475418;32;36135;-80
2022/03/23 09:40:59;;;;;;;15.38;9.20;;;;;;;18.05;19.35;101316.34;4479874;32;35499;-80
2022/03/23 09:43:47;;;;;;;19.00;8.70;;;;;;;16.61;21.03;101319.06;4473084;32;35123;-79
2022/03/23 09:46:33;;;;;;;16.85;8.07;;;;;;;17.23;21.38;101320.44;4459396;32;34284;-80
2022/03/23 09:49:22;;;;;;;14.18;7.53;;;;;;;18.35;20.25;101314.63;4471693;32;34666;-81
2022/03/23 09:52:08;;;;;;;18.67;8.98;;;;;;;19.26;18.84;101314.87;4472446;32;35501;-81
2022/03/23 09:54:54;;;;;;;17.48;8.60;;;;;;;20.03;18.02;101304.69;4470792;32;34143;-81
2022/03/23 09:57:41;;;;;;;15.63;8.18;;;;;;;19.69;18.00;101306.47;4479195;32;34722;-83
2022/03/23 10:00:33;;;;;;;16.90;8.38;;;;;;;18.54;18.82;101314.34;4461928;32;35786;-84
2022/03/23 10:03:42;;;;;;;18.27;7.95;;;;;;;18.75;20.56;101300.69;4469638;32;35130;-83
2022/03/23 10:06:59;;;;;;;14.00;7.50;;;;;;;19.49;18.07;101304.37;4472893;32;33822;-81
2022/03/23 10:10:16;;;;;;;13.15;6.37;;;;;;;21.07;17.12;101294.84;4471425;32;35614;-79
2022/03/23 10:13:24;;;;;;;12.18;6.28;;;;;;;20.32;16.59;101294.72;4481000;32;35036;-83
2022/03/23 10:16:48;;;;;;;12.55;7.78;;;;;;;22.16;15.46;101298.22;4479004;32;34741;-83
2022/03/23 10:19:41;;;;;;;18.25;8.82;;;;;;;23.22;14.50;101294.28;4472145;32;35056;-83
2022/03/23 10:22:28;;;;;;;16.23;8.27;;;;;;;23.61;14.59;101297.34;4477898;32;35167;-85
2022/03/23 10:25:15;;;;;;;14.35;7.37;;;;;;;23.87;14.04;101282.03;4474497;31;36083;-85
2022/03/23 10:28:11;;;;;;;15.32;7.82;;;;;;;20.55;15.67;101287.75;4476948;31;34453;-84
2022/03/23 10:30:57;;;;;;;15.38;8.23;;;;;;;21.53;15.59;101287.34;4473144;32;33064;-85
2022/03/23 10:34:15;;;;;;;11.80;8.13;;;;;;;23.13;14.40;101277.66;4474803;31;35405;-82
2022/03/23 10:37:01;;;;;;;14.07;8.50;;;;;;;23.60;13.81;101273.34;4475941;32;34988;-82
2022/03/23 10:39:48;;;;;;;15.18;8.65;;;;;;;24.12;13.85;101263.03;4473346;32;35221;-82
2022/03/23 10:42:37;;;;;;;17.02;7.78;;;;;;;20.25;17.05;101272.19;4467030;32;35606;-82
2022/03/23 10:45:32;;;;;;;12.80;7.60;;;;;;;22.31;15.53;101255.66;4464143;32;34565;-81
2022/03/23 10:48:18;;;;;;;14.57;7.40;;;;;;;23.20;13.99;101257.50;4458790;32;35357;-83
2022/03/23 10:51:04;;;;;;;12.48;7.78;;;;;;;23.37;14.01;101253.56;4469912;31;34780;-83
2022/03/23 10:53:51;;;;;;;15.82;8.25;;;;;;;24.36;13.29;101251.63;4458791;32;34032;-83
2022/03/23 10:56:38;;;;;;;13.98;8.77;;;;;;;24.81;13.41;101244.56;4472016;32;34620;-82
2022/03/23 10:59:26;;;;;;;13.98;9.20;;;;;;;23.72;13.43;101244.47;4471386;32;34924;-82
2022/03/23 11:02:13;;;;;;;12.85;8.57;;;;;;;23.05;14.35;101249.88;4468942;32;34226;-82
2022/03/23 11:05:01;;;;;;;15.18;9.02;;;;;;;24.96;13.21;101237.28;4462676;32;34063;-82
2022/03/23 11:07:48;;;;;;;12.25;8.55;;;;;;;24.02;12.73;101226.03;4472226;32;34292;-81
2022/03/23 11:16:50;;;;;;;14.32;7.57;;;;;;;23.41;13.03;101218.09;4479267;32;34240;-82
2022/03/23 11:19:37;;;;;;;15.05;7.53;;;;;;;23.94;13.11;101212.25;4479677;32;34764;-82
2022/03/23 11:22:23;;;;;;;14.68;8.52;;;;;;;24.03;13.21;101218.44;4465603;32;35628;-82
2022/03/23 11:25:09;;;;;;;11.50;7.20;;;;;;;23.02;14.06;101209.47;4466277;32;34822;-83
2022/03/23 11:27:56;;;;;;;14.65;7.60;;;;;;;22.74;14.31;101203.03;4462763;32;34284;-84
2022/03/23 11:30:44;;;;;;;17.20;7.43;;;;;;;24.55;12.73;101194.81;4469051;32;34615;-84
2022/03/23 11:33:34;;;;;;;12.57;7.47;;;;;;;22.98;14.26;101205.75;4468674;32;34867;-82
2022/03/23 11:36:25;;;;;;;16.15;7.75;;;;;;;24.27;13.20;101191.38;4458043;32;35515;-83
2022/03/23 11:39:16;;;;;;;14.90;7.75;;;;;;;23.78;13.04;101187.88;4464064;32;34971;-83
2022/03/23 11:42:04;;;;;;;12.55;8.13;;;;;;;24.46;13.12;101185.81;4471632;32;35105;-82
2022/03/23 11:44:50;;;;;;;12.02;7.95;;;;;;;24.08;12.90;101184.56;4472696;32;34870;-84
2022/03/23 11:47:45;;;;;;;12.73;8.18;;;;;;;25.06;12.05;101183.38;4475249;32;34986;-83
2022/03/23 11:50:55;;;;;;;14.30;7.87;;;;;;;24.49;12.31;101181.47;4474635;32;35087;-83
2022/03/23 11:53:54;;;;;;;14.30;7.47;;;;;;;22.87;12.96;101177.50;4472904;32;35562;-83
2022/03/23 11:56:56;;;;;;;12.85;6.45;;;;;;;22.47;14.36;101168.38;4469986;32;34488;-83
2022/03/23 11:59:43;;;;;;;10.75;6.93;;;;;;;23.37;13.54;101163.22;4469652;32;35427;-83
2022/03/23 12:02:40;;;;;;;12.27;6.32;;;;;;;22.51;14.42;101158.09;4469883;32;33742;-83
2022/03/23 12:05:31;;;;;;;16.58;6.35;;;;;;;22.51;13.16;101152.50;4459390;32;35572;-83
2022/03/23 12:08:47;;;;;;;12.15;5.72;;;;;;;20.66;14.94;101149.72;4477003;31;34627;-82
2022/03/23 12:11:41;;;;;;;14.23;5.80;;;;;;;21.82;13.92;101143.25;4469067;32;34569;-81
2022/03/23 12:14:32;;;;;;;9.15;5.65;;;;;;;22.89;13.00;101136.03;4473556;32;34178;-80
2022/03/23 12:17:27;;;;;;;15.27;5.72;;;;;;;23.14;13.01;101130.31;4461467;32;34198;-81
2022/03/23 12:20:15;;;;;;;10.35;5.82;;;;;;;23.63;13.41;101132.72;4456171;32;34862;-81
2022/03/23 12:23:14;;;;;;;10.05;5.95;;;;;;;24.63;13.15;101134.94;4469221;32;35637;-81
2022/03/23 12:26:12;;;;;;;12.52;6.03;;;;;;;24.62;11.99;101129.72;4466597;32;35358;-82
2022/03/23 12:29:13;;;;;;;12.45;5.90;;;;;;;24.83;11.82;101127.28;4460923;32;34246;-82
2022/03/23 12:32:08;;;;;;;10.52;5.95;;;;;;;25.97;10.74;101111.53;4468362;32;34106;-81
2022/03/23 12:34:56;;;;;;;10.00;5.60;;;;;;;24.79;11.20;101111.56;4479624;32;34455;-82
2022/03/23 12:37:43;;;;;;;9.73;4.70;;;;;;;21.50;13.01;101106.78;4478546;32;34200;-82
2022/03/23 12:40:37;;;;;;;9.73;5.35;;;;;;;23.43;12.19;101097.47;4471955;32;34676;-81
2022/03/23 12:43:39;;;;;;;11.10;5.60;;;;;;;24.37;11.93;101107.56;4462089;32;34725;-81
2022/03/23 12:46:29;;;;;;;11.77;5.72;;;;;;;24.90;10.65;101101.37;4473404;32;34552;-81
2022/03/23 12:58:45;;;;;;;9.07;5.35;;;;;;;25.52;10.04;101087.19;4449864;32;35492;-81
2022/03/23 13:01:31;;;;;;;9.43;5.15;;;;;;;23.22;11.83;101080.97;4469135;32;34084;-81
2022/03/23 13:04:43;;;;;;;8.15;4.57;;;;;;;23.77;11.17;101077.09;4467000;32;34220;-80
2022/03/23 13:07:29;;;;;;;8.48;5.50;;;;;;;25.11;11.46;101078.53;4478909;32;36267;-80
2022/03/23 13:10:18;;;;;;;11.12;5.53;;;;;;;25.20;10.82;101069.88;4478618;32;34431;-79
2022/03/23 13:13:05;;;;;;;13.62;5.70;;;;;;;25.22;10.05;101078.72;4480134;32;33150;-79
2022/03/23 13:15:52;;;;;;;11.43;5.30;;;;;;;23.57;11.08;101067.03;4453944;32;34303;-79
2022/03/23 13:18:39;;;;;;;9.95;4.90;;;;;;;23.58;10.69;101061.06;4467673;32;35681;-80
2022/03/23 13:21:29;;;;;;;9.98;5.00;;;;;;;24.19;11.19;101061.56;4471644;32;33731;-80
2022/03/23 13:24:17;;;;;;;8.30;5.30;;;;;;;24.33;11.23;101063.84;4451447;32;34408;-80
2022/03/23 13:27:13;;;;;;;9.13;5.85;;;;;;;24.20;10.73;101055.62;4478655;32;34311;-81
2022/03/23 13:30:05;;;;;;;11.02;4.97;;;;;;;23.96;11.01;101051.13;4468964;32;35870;-83